sensor_id;sensor_type;location;lat;lon;timestamp;P1;durP1;ratioP1;P2;durP2;ratioP2
75135;SDS011;63707;52.212;9.540;2023-04-25T00:00:06;18.20;;;6.15;;
75135;SDS011;63707;52.212;9.540;2023-04-25T00:02:35;15.98;;;6.50;;
75135;SDS011;63707;52.212;9.540;2023-04-25T00:05:01;14.32;;;5.03;;
75135;SDS011;63707;52.212;9.540;2023-04-25T00:07:26;18.63;;;6.80;;
75135;SDS011;63707;52.212;9.540;2023-04-25T00:09:52;23.85;;;7.53;;
75135;SDS011;63707;52.212;9.540;2023-04-25T00:12:17;20.30;;;6.15;;
75135;SDS011;63707;52.212;9.540;2023-04-25T00:14:43;21.85;;;6.35;;
75135;SDS011;63707;52.212;9.540;2023-04-25T00:17:10;17.75;;;6.35;;
75135;SDS011;63707;52.212;9.540;2023-04-25T00:19:37;21.67;;;6.95;;
75135;SDS011;63707;52.212;9.540;2023-04-25T00:22:03;19.73;;;7.22;;
75135;SDS011;63707;52.212;9.540;2023-04-25T00:24:28;19.67;;;7.18;;
75135;SDS011;63707;52.212;9.540;2023-04-25T00:26:54;18.98;;;7.20;;
75135;SDS011;63707;52.212;9.540;2023-04-25T00:29:20;25.02;;;8.02;;
75135;SDS011;63707;52.212;9.540;2023-04-25T00:31:45;21.00;;;6.22;;
75135;SDS011;63707;52.212;9.540;2023-04-25T00:34:11;22.50;;;7.63;;
75135;SDS011;63707;52.212;9.540;2023-04-25T00:36:38;21.38;;;6.60;;
75135;SDS011;63707;52.212;9.540;2023-04-25T00:39:03;21.83;;;7.00;;
75135;SDS011;63707;52.212;9.540;2023-04-25T00:41:29;22.67;;;6.65;;
75135;SDS011;63707;52.212;9.540;2023-04-25T00:43:55;20.88;;;7.40;;
75135;SDS011;63707;52.212;9.540;2023-04-25T00:46:22;26.63;;;9.48;;
75135;SDS011;63707;52.212;9.540;2023-04-25T00:48:47;21.08;;;8.05;;
75135;SDS011;63707;52.212;9.540;2023-04-25T00:51:13;22.83;;;8.82;;
75135;SDS011;63707;52.212;9.540;2023-04-25T00:53:43;24.58;;;8.48;;
75135;SDS011;63707;52.212;9.540;2023-04-25T00:56:12;24.10;;;8.70;;
75135;SDS011;63707;52.212;9.540;2023-04-25T00:58:38;16.92;;;7.32;;
75135;SDS011;63707;52.212;9.540;2023-04-25T01:01:03;25.58;;;9.02;;
75135;SDS011;63707;52.212;9.540;2023-04-25T01:03:29;24.67;;;9.00;;
75135;SDS011;63707;52.212;9.540;2023-04-25T01:05:57;26.33;;;9.32;;
75135;SDS011;63707;52.212;9.540;2023-04-25T01:08:23;26.45;;;9.27;;
75135;SDS011;63707;52.212;9.540;2023-04-25T01:10:51;32.95;;;9.52;;
75135;SDS011;63707;52.212;9.540;2023-04-25T01:13:17;23.77;;;9.18;;
75135;SDS011;63707;52.212;9.540;2023-04-25T01:15:43;22.60;;;9.10;;
75135;SDS011;63707;52.212;9.540;2023-04-25T01:18:08;22.00;;;9.50;;
75135;SDS011;63707;52.212;9.540;2023-04-25T01:20:34;25.42;;;9.68;;
75135;SDS011;63707;52.212;9.540;2023-04-25T01:23:03;18.13;;;8.45;;
75135;SDS011;63707;52.212;9.540;2023-04-25T01:25:29;25.67;;;9.52;;
75135;SDS011;63707;52.212;9.540;2023-04-25T01:27:55;26.95;;;9.75;;
75135;SDS011;63707;52.212;9.540;2023-04-25T01:30:21;25.58;;;9.93;;
75135;SDS011;63707;52.212;9.540;2023-04-25T01:32:47;24.80;;;9.90;;
75135;SDS011;63707;52.212;9.540;2023-04-25T01:35:16;28.00;;;10.60;;
75135;SDS011;63707;52.212;9.540;2023-04-25T01:37:42;27.05;;;9.75;;
75135;SDS011;63707;52.212;9.540;2023-04-25T01:40:10;25.13;;;9.85;;
75135;SDS011;63707;52.212;9.540;2023-04-25T01:42:37;28.42;;;10.20;;
75135;SDS011;63707;52.212;9.540;2023-04-25T01:45:05;28.65;;;10.63;;
75135;SDS011;63707;52.212;9.540;2023-04-25T01:47:31;27.02;;;10.30;;
75135;SDS011;63707;52.212;9.540;2023-04-25T01:49:57;20.95;;;8.52;;
75135;SDS011;63707;52.212;9.540;2023-04-25T01:52:23;26.88;;;10.18;;
75135;SDS011;63707;52.212;9.540;2023-04-25T01:54:48;26.88;;;10.02;;
75135;SDS011;63707;52.212;9.540;2023-04-25T01:57:17;26.95;;;10.63;;
75135;SDS011;63707;52.212;9.540;2023-04-25T01:59:43;26.55;;;10.55;;
75135;SDS011;63707;52.212;9.540;2023-04-25T02:02:08;34.22;;;11.32;;
75135;SDS011;63707;52.212;9.540;2023-04-25T02:04:34;25.25;;;9.85;;
75135;SDS011;63707;52.212;9.540;2023-04-25T02:07:00;26.90;;;10.27;;
75135;SDS011;63707;52.212;9.540;2023-04-25T02:09:25;26.98;;;9.40;;
75135;SDS011;63707;52.212;9.540;2023-04-25T02:11:51;23.02;;;9.52;;
75135;SDS011;63707;52.212;9.540;2023-04-25T02:14:19;21.08;;;9.20;;
75135;SDS011;63707;52.212;9.540;2023-04-25T02:16:45;26.70;;;9.52;;
75135;SDS011;63707;52.212;9.540;2023-04-25T02:19:11;25.27;;;8.45;;
75135;SDS011;63707;52.212;9.540;2023-04-25T02:21:37;27.42;;;9.60;;
75135;SDS011;63707;52.212;9.540;2023-04-25T02:24:02;21.00;;;8.18;;
75135;SDS011;63707;52.212;9.540;2023-04-25T02:26:29;23.27;;;8.15;;
75135;SDS011;63707;52.212;9.540;2023-04-25T02:28:55;24.83;;;8.32;;
75135;SDS011;63707;52.212;9.540;2023-04-25T02:31:22;19.35;;;7.85;;
75135;SDS011;63707;52.212;9.540;2023-04-25T02:33:48;24.55;;;8.85;;
75135;SDS011;63707;52.212;9.540;2023-04-25T02:36:13;20.83;;;7.57;;
75135;SDS011;63707;52.212;9.540;2023-04-25T02:38:40;17.10;;;7.30;;
75135;SDS011;63707;52.212;9.540;2023-04-25T02:41:05;17.15;;;7.15;;
75135;SDS011;63707;52.212;9.540;2023-04-25T02:43:31;19.80;;;7.32;;
75135;SDS011;63707;52.212;9.540;2023-04-25T02:45:56;21.95;;;6.43;;
75135;SDS011;63707;52.212;9.540;2023-04-25T02:48:23;19.67;;;6.03;;
75135;SDS011;63707;52.212;9.540;2023-04-25T02:50:49;23.42;;;5.95;;
75135;SDS011;63707;52.212;9.540;2023-04-25T02:53:14;24.05;;;6.85;;
75135;SDS011;63707;52.212;9.540;2023-04-25T02:55:40;22.52;;;5.95;;
75135;SDS011;63707;52.212;9.540;2023-04-25T02:58:05;27.50;;;6.53;;
75135;SDS011;63707;52.212;9.540;2023-04-25T03:00:31;23.42;;;7.38;;
75135;SDS011;63707;52.212;9.540;2023-04-25T03:02:56;24.48;;;6.68;;
75135;SDS011;63707;52.212;9.540;2023-04-25T03:05:23;20.23;;;5.90;;
75135;SDS011;63707;52.212;9.540;2023-04-25T03:07:49;22.55;;;6.28;;
75135;SDS011;63707;52.212;9.540;2023-04-25T03:10:14;19.35;;;6.15;;
75135;SDS011;63707;52.212;9.540;2023-04-25T03:12:40;24.58;;;6.22;;
75135;SDS011;63707;52.212;9.540;2023-04-25T03:15:05;24.60;;;7.22;;
75135;SDS011;63707;52.212;9.540;2023-04-25T03:17:31;22.70;;;7.05;;
75135;SDS011;63707;52.212;9.540;2023-04-25T03:19:57;27.67;;;7.15;;
75135;SDS011;63707;52.212;9.540;2023-04-25T03:22:24;34.65;;;7.82;;
75135;SDS011;63707;52.212;9.540;2023-04-25T03:24:49;29.63;;;7.13;;
75135;SDS011;63707;52.212;9.540;2023-04-25T03:27:15;26.08;;;7.82;;
75135;SDS011;63707;52.212;9.540;2023-04-25T03:29:40;27.10;;;7.90;;
75135;SDS011;63707;52.212;9.540;2023-04-25T03:32:06;38.03;;;7.82;;
75135;SDS011;63707;52.212;9.540;2023-04-25T03:34:31;35.33;;;9.07;;
75135;SDS011;63707;52.212;9.540;2023-04-25T03:36:57;36.40;;;8.40;;
75135;SDS011;63707;52.212;9.540;2023-04-25T03:39:24;36.88;;;8.02;;
75135;SDS011;63707;52.212;9.540;2023-04-25T03:41:49;39.00;;;8.07;;
75135;SDS011;63707;52.212;9.540;2023-04-25T03:44:15;31.42;;;7.93;;
75135;SDS011;63707;52.212;9.540;2023-04-25T03:46:40;27.88;;;6.85;;
75135;SDS011;63707;52.212;9.540;2023-04-25T03:49:06;31.48;;;5.80;;
75135;SDS011;63707;52.212;9.540;2023-04-25T03:51:31;21.83;;;5.88;;
75135;SDS011;63707;52.212;9.540;2023-04-25T03:53:57;32.53;;;7.57;;
75135;SDS011;63707;52.212;9.540;2023-04-25T03:56:24;42.55;;;7.47;;
75135;SDS011;63707;52.212;9.540;2023-04-25T03:58:50;27.92;;;6.35;;
75135;SDS011;63707;52.212;9.540;2023-04-25T04:01:15;40.90;;;7.40;;
75135;SDS011;63707;52.212;9.540;2023-04-25T04:03:41;32.70;;;7.25;;
75135;SDS011;63707;52.212;9.540;2023-04-25T04:06:06;32.47;;;6.53;;
75135;SDS011;63707;52.212;9.540;2023-04-25T04:08:32;40.33;;;8.65;;
75135;SDS011;63707;52.212;9.540;2023-04-25T04:10:58;30.30;;;7.47;;
75135;SDS011;63707;52.212;9.540;2023-04-25T04:13:26;28.92;;;6.45;;
75135;SDS011;63707;52.212;9.540;2023-04-25T04:15:52;31.50;;;7.13;;
75135;SDS011;63707;52.212;9.540;2023-04-25T04:18:18;38.67;;;8.55;;
75135;SDS011;63707;52.212;9.540;2023-04-25T04:20:43;33.38;;;6.38;;
75135;SDS011;63707;52.212;9.540;2023-04-25T04:23:09;31.38;;;6.30;;
75135;SDS011;63707;52.212;9.540;2023-04-25T04:25:35;31.38;;;6.32;;
75135;SDS011;63707;52.212;9.540;2023-04-25T04:28:01;39.55;;;6.50;;
75135;SDS011;63707;52.212;9.540;2023-04-25T04:30:28;28.52;;;6.50;;
75135;SDS011;63707;52.212;9.540;2023-04-25T04:32:58;32.35;;;7.63;;
75135;SDS011;63707;52.212;9.540;2023-04-25T04:35:24;37.80;;;7.72;;
75135;SDS011;63707;52.212;9.540;2023-04-25T04:37:49;43.70;;;8.05;;
75135;SDS011;63707;52.212;9.540;2023-04-25T04:40:15;36.38;;;7.63;;
75135;SDS011;63707;52.212;9.540;2023-04-25T04:42:42;37.17;;;7.13;;
75135;SDS011;63707;52.212;9.540;2023-04-25T04:45:08;32.70;;;6.20;;
75135;SDS011;63707;52.212;9.540;2023-04-25T04:47:36;25.85;;;7.15;;
75135;SDS011;63707;52.212;9.540;2023-04-25T04:50:02;35.17;;;8.05;;
75135;SDS011;63707;52.212;9.540;2023-04-25T04:52:27;28.38;;;6.10;;
75135;SDS011;63707;52.212;9.540;2023-04-25T04:54:53;34.65;;;7.47;;
75135;SDS011;63707;52.212;9.540;2023-04-25T04:57:18;36.90;;;6.85;;
75135;SDS011;63707;52.212;9.540;2023-04-25T04:59:44;33.83;;;7.13;;
75135;SDS011;63707;52.212;9.540;2023-04-25T05:02:10;27.48;;;6.10;;
75135;SDS011;63707;52.212;9.540;2023-04-25T05:04:36;39.67;;;6.65;;
75135;SDS011;63707;52.212;9.540;2023-04-25T05:07:02;32.85;;;7.25;;
75135;SDS011;63707;52.212;9.540;2023-04-25T05:09:27;45.50;;;7.55;;
75135;SDS011;63707;52.212;9.540;2023-04-25T05:11:53;34.17;;;6.35;;
75135;SDS011;63707;52.212;9.540;2023-04-25T05:14:18;33.13;;;6.50;;
75135;SDS011;63707;52.212;9.540;2023-04-25T05:16:44;33.35;;;6.65;;
75135;SDS011;63707;52.212;9.540;2023-04-25T05:19:09;33.75;;;6.00;;
75135;SDS011;63707;52.212;9.540;2023-04-25T05:21:36;32.42;;;6.18;;
75135;SDS011;63707;52.212;9.540;2023-04-25T05:24:02;27.63;;;5.45;;
75135;SDS011;63707;52.212;9.540;2023-04-25T05:26:27;31.90;;;6.07;;
75135;SDS011;63707;52.212;9.540;2023-04-25T05:28:55;29.30;;;5.05;;
75135;SDS011;63707;52.212;9.540;2023-04-25T05:31:21;34.35;;;6.10;;
75135;SDS011;63707;52.212;9.540;2023-04-25T05:33:46;36.92;;;6.57;;
75135;SDS011;63707;52.212;9.540;2023-04-25T05:36:12;38.10;;;5.80;;
75135;SDS011;63707;52.212;9.540;2023-04-25T05:38:39;31.00;;;5.82;;
75135;SDS011;63707;52.212;9.540;2023-04-25T05:41:04;28.88;;;6.00;;
75135;SDS011;63707;52.212;9.540;2023-04-25T05:43:30;25.15;;;5.35;;
75135;SDS011;63707;52.212;9.540;2023-04-25T05:45:55;22.95;;;5.88;;
75135;SDS011;63707;52.212;9.540;2023-04-25T05:48:21;25.52;;;6.40;;
75135;SDS011;63707;52.212;9.540;2023-04-25T05:50:46;26.27;;;5.03;;
75135;SDS011;63707;52.212;9.540;2023-04-25T05:53:12;31.02;;;5.70;;
75135;SDS011;63707;52.212;9.540;2023-04-25T05:55:39;25.50;;;4.55;;
75135;SDS011;63707;52.212;9.540;2023-04-25T05:58:04;24.63;;;5.22;;
75135;SDS011;63707;52.212;9.540;2023-04-25T06:00:31;22.90;;;4.68;;
75135;SDS011;63707;52.212;9.540;2023-04-25T06:02:56;25.58;;;5.00;;
75135;SDS011;63707;52.212;9.540;2023-04-25T06:05:22;17.65;;;4.03;;
75135;SDS011;63707;52.212;9.540;2023-04-25T06:07:47;27.83;;;6.00;;
75135;SDS011;63707;52.212;9.540;2023-04-25T06:10:13;27.55;;;6.28;;
75135;SDS011;63707;52.212;9.540;2023-04-25T06:12:40;22.90;;;6.10;;
75135;SDS011;63707;52.212;9.540;2023-04-25T06:15:06;20.63;;;4.38;;
75135;SDS011;63707;52.212;9.540;2023-04-25T06:17:32;28.95;;;5.57;;
75135;SDS011;63707;52.212;9.540;2023-04-25T06:19:57;21.05;;;3.85;;
75135;SDS011;63707;52.212;9.540;2023-04-25T06:22:23;22.83;;;4.72;;
75135;SDS011;63707;52.212;9.540;2023-04-25T06:24:48;27.00;;;4.18;;
75135;SDS011;63707;52.212;9.540;2023-04-25T06:27:14;20.77;;;3.97;;
75135;SDS011;63707;52.212;9.540;2023-04-25T06:29:41;22.38;;;4.55;;
75135;SDS011;63707;52.212;9.540;2023-04-25T06:32:06;22.67;;;4.53;;
75135;SDS011;63707;52.212;9.540;2023-04-25T06:34:32;31.98;;;5.10;;
75135;SDS011;63707;52.212;9.540;2023-04-25T06:36:57;22.45;;;4.30;;
75135;SDS011;63707;52.212;9.540;2023-04-25T06:39:23;25.95;;;5.20;;
75135;SDS011;63707;52.212;9.540;2023-04-25T06:41:49;26.15;;;4.85;;
75135;SDS011;63707;52.212;9.540;2023-04-25T06:44:15;21.08;;;4.88;;
75135;SDS011;63707;52.212;9.540;2023-04-25T06:46:42;21.98;;;4.55;;
75135;SDS011;63707;52.212;9.540;2023-04-25T06:49:07;24.10;;;4.28;;
75135;SDS011;63707;52.212;9.540;2023-04-25T06:51:33;23.83;;;4.20;;
75135;SDS011;63707;52.212;9.540;2023-04-25T06:53:58;16.73;;;3.20;;
75135;SDS011;63707;52.212;9.540;2023-04-25T06:56:24;16.65;;;4.07;;
75135;SDS011;63707;52.212;9.540;2023-04-25T06:58:49;17.85;;;3.65;;
75135;SDS011;63707;52.212;9.540;2023-04-25T07:01:15;24.42;;;4.15;;
75135;SDS011;63707;52.212;9.540;2023-04-25T07:03:42;22.08;;;4.38;;
75135;SDS011;63707;52.212;9.540;2023-04-25T07:06:07;17.65;;;4.13;;
75135;SDS011;63707;52.212;9.540;2023-04-25T07:08:33;18.58;;;3.42;;
75135;SDS011;63707;52.212;9.540;2023-04-25T07:10:58;19.75;;;4.70;;
75135;SDS011;63707;52.212;9.540;2023-04-25T07:13:24;19.42;;;3.80;;
75135;SDS011;63707;52.212;9.540;2023-04-25T07:15:49;17.17;;;3.47;;
75135;SDS011;63707;52.212;9.540;2023-04-25T07:18:15;22.45;;;4.57;;
75135;SDS011;63707;52.212;9.540;2023-04-25T07:20:42;27.13;;;4.53;;
75135;SDS011;63707;52.212;9.540;2023-04-25T07:23:07;18.88;;;3.33;;
75135;SDS011;63707;52.212;9.540;2023-04-25T07:25:33;22.90;;;3.97;;
75135;SDS011;63707;52.212;9.540;2023-04-25T07:27:58;21.05;;;4.18;;
75135;SDS011;63707;52.212;9.540;2023-04-25T07:30:24;16.10;;;3.42;;
75135;SDS011;63707;52.212;9.540;2023-04-25T07:32:49;19.13;;;4.10;;
75135;SDS011;63707;52.212;9.540;2023-04-25T07:35:15;27.25;;;4.25;;
75135;SDS011;63707;52.212;9.540;2023-04-25T07:37:42;21.70;;;3.78;;
75135;SDS011;63707;52.212;9.540;2023-04-25T07:40:08;20.02;;;3.67;;
75135;SDS011;63707;52.212;9.540;2023-04-25T07:42:34;19.45;;;3.95;;
75135;SDS011;63707;52.212;9.540;2023-04-25T07:45:00;12.77;;;3.70;;
75135;SDS011;63707;52.212;9.540;2023-04-25T07:47:25;16.08;;;4.43;;
75135;SDS011;63707;52.212;9.540;2023-04-25T07:49:51;18.92;;;4.40;;
75135;SDS011;63707;52.212;9.540;2023-04-25T07:52:17;15.98;;;3.33;;
75135;SDS011;63707;52.212;9.540;2023-04-25T07:54:43;18.95;;;3.60;;
75135;SDS011;63707;52.212;9.540;2023-04-25T07:57:10;16.48;;;3.30;;
75135;SDS011;63707;52.212;9.540;2023-04-25T07:59:35;17.30;;;3.75;;
75135;SDS011;63707;52.212;9.540;2023-04-25T08:02:01;15.13;;;3.38;;
75135;SDS011;63707;52.212;9.540;2023-04-25T08:04:27;16.05;;;3.17;;
75135;SDS011;63707;52.212;9.540;2023-04-25T08:06:53;14.23;;;3.13;;
75135;SDS011;63707;52.212;9.540;2023-04-25T08:09:19;14.35;;;2.80;;
75135;SDS011;63707;52.212;9.540;2023-04-25T08:11:46;15.98;;;2.67;;
75135;SDS011;63707;52.212;9.540;2023-04-25T08:14:12;12.18;;;2.58;;
75135;SDS011;63707;52.212;9.540;2023-04-25T08:16:38;20.00;;;2.45;;
75135;SDS011;63707;52.212;9.540;2023-04-25T08:19:03;15.15;;;2.72;;
75135;SDS011;63707;52.212;9.540;2023-04-25T08:21:30;9.75;;;2.03;;
75135;SDS011;63707;52.212;9.540;2023-04-25T08:23:56;11.98;;;2.55;;
75135;SDS011;63707;52.212;9.540;2023-04-25T08:26:23;8.98;;;2.45;;
75135;SDS011;63707;52.212;9.540;2023-04-25T08:28:49;12.20;;;2.60;;
75135;SDS011;63707;52.212;9.540;2023-04-25T08:31:15;12.63;;;2.63;;
75135;SDS011;63707;52.212;9.540;2023-04-25T08:33:40;13.68;;;2.20;;
75135;SDS011;63707;52.212;9.540;2023-04-25T08:36:06;8.38;;;2.47;;
75135;SDS011;63707;52.212;9.540;2023-04-25T08:38:32;11.80;;;2.17;;
75135;SDS011;63707;52.212;9.540;2023-04-25T08:40:57;12.63;;;2.75;;
75135;SDS011;63707;52.212;9.540;2023-04-25T08:43:25;11.95;;;2.42;;
75135;SDS011;63707;52.212;9.540;2023-04-25T08:45:52;11.95;;;2.28;;
75135;SDS011;63707;52.212;9.540;2023-04-25T08:48:21;7.78;;;2.03;;
75135;SDS011;63707;52.212;9.540;2023-04-25T08:50:50;10.43;;;2.38;;
75135;SDS011;63707;52.212;9.540;2023-04-25T08:53:18;12.30;;;2.03;;
75135;SDS011;63707;52.212;9.540;2023-04-25T08:55:48;8.98;;;1.90;;
75135;SDS011;63707;52.212;9.540;2023-04-25T08:58:15;11.50;;;2.63;;
75135;SDS011;63707;52.212;9.540;2023-04-25T09:00:41;14.45;;;2.42;;
75135;SDS011;63707;52.212;9.540;2023-04-25T09:03:08;11.15;;;2.17;;
75135;SDS011;63707;52.212;9.540;2023-04-25T09:05:33;9.00;;;2.40;;
75135;SDS011;63707;52.212;9.540;2023-04-25T09:08:00;12.60;;;2.58;;
75135;SDS011;63707;52.212;9.540;2023-04-25T09:10:26;17.52;;;2.88;;
75135;SDS011;63707;52.212;9.540;2023-04-25T09:13:04;13.65;;;2.63;;
75135;SDS011;63707;52.212;9.540;2023-04-25T09:15:31;10.77;;;2.13;;
75135;SDS011;63707;52.212;9.540;2023-04-25T09:17:58;12.85;;;3.05;;
75135;SDS011;63707;52.212;9.540;2023-04-25T09:20:25;16.20;;;2.95;;
75135;SDS011;63707;52.212;9.540;2023-04-25T09:23:00;12.10;;;2.72;;
75135;SDS011;63707;52.212;9.540;2023-04-25T09:25:27;8.85;;;2.17;;
75135;SDS011;63707;52.212;9.540;2023-04-25T09:28:00;13.93;;;2.50;;
75135;SDS011;63707;52.212;9.540;2023-04-25T09:30:29;13.70;;;3.08;;
75135;SDS011;63707;52.212;9.540;2023-04-25T09:32:56;11.23;;;2.45;;
75135;SDS011;63707;52.212;9.540;2023-04-25T09:35:26;14.93;;;2.60;;
75135;SDS011;63707;52.212;9.540;2023-04-25T09:37:52;11.60;;;2.47;;
75135;SDS011;63707;52.212;9.540;2023-04-25T09:40:17;8.38;;;2.20;;
75135;SDS011;63707;52.212;9.540;2023-04-25T09:42:43;13.32;;;2.08;;
75135;SDS011;63707;52.212;9.540;2023-04-25T09:45:09;20.45;;;2.72;;
75135;SDS011;63707;52.212;9.540;2023-04-25T09:47:40;16.70;;;2.90;;
75135;SDS011;63707;52.212;9.540;2023-04-25T09:50:13;10.02;;;2.20;;
75135;SDS011;63707;52.212;9.540;2023-04-25T09:52:41;8.80;;;2.10;;
75135;SDS011;63707;52.212;9.540;2023-04-25T09:55:07;15.57;;;2.78;;
75135;SDS011;63707;52.212;9.540;2023-04-25T09:57:32;13.55;;;2.45;;
75135;SDS011;63707;52.212;9.540;2023-04-25T09:59:58;10.98;;;2.13;;
75135;SDS011;63707;52.212;9.540;2023-04-25T10:02:26;11.77;;;2.33;;
75135;SDS011;63707;52.212;9.540;2023-04-25T10:04:52;12.75;;;2.20;;
75135;SDS011;63707;52.212;9.540;2023-04-25T10:07:20;6.95;;;1.65;;
75135;SDS011;63707;52.212;9.540;2023-04-25T10:09:53;8.30;;;1.60;;
75135;SDS011;63707;52.212;9.540;2023-04-25T10:12:22;8.52;;;1.85;;
75135;SDS011;63707;52.212;9.540;2023-04-25T10:14:48;14.23;;;2.42;;
75135;SDS011;63707;52.212;9.540;2023-04-25T10:17:14;4.07;;;1.52;;
75135;SDS011;63707;52.212;9.540;2023-04-25T10:19:40;9.52;;;2.40;;
75135;SDS011;63707;52.212;9.540;2023-04-25T10:22:07;9.13;;;2.30;;
75135;SDS011;63707;52.212;9.540;2023-04-25T10:24:38;9.27;;;2.20;;
75135;SDS011;63707;52.212;9.540;2023-04-25T10:27:05;7.60;;;2.10;;
75135;SDS011;63707;52.212;9.540;2023-04-25T10:29:32;8.02;;;2.17;;
75135;SDS011;63707;52.212;9.540;2023-04-25T10:31:57;12.70;;;2.08;;
75135;SDS011;63707;52.212;9.540;2023-04-25T10:34:23;4.07;;;1.35;;
75135;SDS011;63707;52.212;9.540;2023-04-25T10:37:02;7.25;;;2.28;;
75135;SDS011;63707;52.212;9.540;2023-04-25T10:39:28;9.73;;;2.00;;
75135;SDS011;63707;52.212;9.540;2023-04-25T10:41:55;8.25;;;1.90;;
75135;SDS011;63707;52.212;9.540;2023-04-25T10:44:23;8.27;;;1.80;;
75135;SDS011;63707;52.212;9.540;2023-04-25T10:46:51;6.72;;;1.80;;
75135;SDS011;63707;52.212;9.540;2023-04-25T10:49:32;6.22;;;1.83;;
75135;SDS011;63707;52.212;9.540;2023-04-25T10:52:14;5.30;;;1.88;;
75135;SDS011;63707;52.212;9.540;2023-04-25T10:54:48;7.95;;;1.88;;
75135;SDS011;63707;52.212;9.540;2023-04-25T11:00:07;5.65;;;1.60;;
75135;SDS011;63707;52.212;9.540;2023-04-25T11:02:42;6.53;;;2.20;;
75135;SDS011;63707;52.212;9.540;2023-04-25T11:07:44;7.25;;;1.80;;
75135;SDS011;63707;52.212;9.540;2023-04-25T11:10:14;5.50;;;1.60;;
75135;SDS011;63707;52.212;9.540;2023-04-25T11:12:40;8.40;;;2.08;;
75135;SDS011;63707;52.212;9.540;2023-04-25T11:15:07;9.60;;;2.33;;
75135;SDS011;63707;52.212;9.540;2023-04-25T11:17:34;10.70;;;1.98;;
75135;SDS011;63707;52.212;9.540;2023-04-25T11:20:00;6.95;;;1.45;;
75135;SDS011;63707;52.212;9.540;2023-04-25T11:22:26;8.48;;;1.50;;
75135;SDS011;63707;52.212;9.540;2023-04-25T11:24:52;7.78;;;2.45;;
75135;SDS011;63707;52.212;9.540;2023-04-25T11:27:18;6.25;;;1.70;;
75135;SDS011;63707;52.212;9.540;2023-04-25T11:29:43;6.70;;;1.70;;
75135;SDS011;63707;52.212;9.540;2023-04-25T11:32:10;9.70;;;1.70;;
75135;SDS011;63707;52.212;9.540;2023-04-25T11:34:36;6.45;;;1.98;;
75135;SDS011;63707;52.212;9.540;2023-04-25T11:37:01;10.40;;;1.92;;
75135;SDS011;63707;52.212;9.540;2023-04-25T11:39:28;8.68;;;1.65;;
75135;SDS011;63707;52.212;9.540;2023-04-25T11:41:54;15.95;;;2.30;;
75135;SDS011;63707;52.212;9.540;2023-04-25T11:44:20;11.23;;;2.08;;
75135;SDS011;63707;52.212;9.540;2023-04-25T11:46:47;8.88;;;2.50;;
75135;SDS011;63707;52.212;9.540;2023-04-25T11:49:14;9.07;;;2.47;;
75135;SDS011;63707;52.212;9.540;2023-04-25T11:51:40;20.13;;;2.75;;
75135;SDS011;63707;52.212;9.540;2023-04-25T11:54:06;9.43;;;2.08;;
75135;SDS011;63707;52.212;9.540;2023-04-25T11:56:33;6.95;;;1.75;;
75135;SDS011;63707;52.212;9.540;2023-04-25T11:58:59;9.70;;;1.80;;
75135;SDS011;63707;52.212;9.540;2023-04-25T12:01:28;10.00;;;1.85;;
75135;SDS011;63707;52.212;9.540;2023-04-25T12:03:55;7.28;;;1.80;;
75135;SDS011;63707;52.212;9.540;2023-04-25T12:06:23;6.70;;;1.60;;
75135;SDS011;63707;52.212;9.540;2023-04-25T12:09:01;5.53;;;1.40;;
75135;SDS011;63707;52.212;9.540;2023-04-25T12:11:29;6.90;;;1.77;;
75135;SDS011;63707;52.212;9.540;2023-04-25T12:13:55;4.97;;;1.60;;
75135;SDS011;63707;52.212;9.540;2023-04-25T12:16:21;5.25;;;1.38;;
75135;SDS011;63707;52.212;9.540;2023-04-25T12:18:47;5.43;;;1.40;;
75135;SDS011;63707;52.212;9.540;2023-04-25T12:21:12;4.28;;;1.08;;
75135;SDS011;63707;52.212;9.540;2023-04-25T12:23:39;6.15;;;1.30;;
75135;SDS011;63707;52.212;9.540;2023-04-25T12:26:07;7.85;;;1.30;;
75135;SDS011;63707;52.212;9.540;2023-04-25T12:28:33;7.05;;;1.60;;
75135;SDS011;63707;52.212;9.540;2023-04-25T12:31:00;8.82;;;1.52;;
75135;SDS011;63707;52.212;9.540;2023-04-25T12:33:28;6.20;;;1.40;;
75135;SDS011;63707;52.212;9.540;2023-04-25T12:35:54;6.43;;;1.27;;
75135;SDS011;63707;52.212;9.540;2023-04-25T12:38:21;5.50;;;1.40;;
75135;SDS011;63707;52.212;9.540;2023-04-25T12:40:49;6.68;;;1.42;;
75135;SDS011;63707;52.212;9.540;2023-04-25T12:43:14;8.10;;;1.45;;
75135;SDS011;63707;52.212;9.540;2023-04-25T12:45:40;4.82;;;1.33;;
75135;SDS011;63707;52.212;9.540;2023-04-25T12:48:05;4.28;;;1.27;;
75135;SDS011;63707;52.212;9.540;2023-04-25T12:50:31;5.05;;;1.38;;
75135;SDS011;63707;52.212;9.540;2023-04-25T12:52:57;6.38;;;1.50;;
75135;SDS011;63707;52.212;9.540;2023-04-25T12:55:22;6.07;;;1.10;;
75135;SDS011;63707;52.212;9.540;2023-04-25T12:57:49;8.85;;;1.40;;
75135;SDS011;63707;52.212;9.540;2023-04-25T13:00:15;4.18;;;1.20;;
75135;SDS011;63707;52.212;9.540;2023-04-25T13:02:43;3.95;;;1.42;;
75135;SDS011;63707;52.212;9.540;2023-04-25T13:05:08;3.63;;;1.10;;
75135;SDS011;63707;52.212;9.540;2023-04-25T13:07:34;3.55;;;1.30;;
75135;SDS011;63707;52.212;9.540;2023-04-25T13:09:59;4.65;;;1.40;;
75135;SDS011;63707;52.212;9.540;2023-04-25T13:12:25;5.20;;;1.42;;
75135;SDS011;63707;52.212;9.540;2023-04-25T13:14:52;5.85;;;1.20;;
75135;SDS011;63707;52.212;9.540;2023-04-25T13:17:17;7.22;;;1.27;;
75135;SDS011;63707;52.212;9.540;2023-04-25T13:19:43;7.70;;;1.70;;
75135;SDS011;63707;52.212;9.540;2023-04-25T13:22:08;3.25;;;0.95;;
75135;SDS011;63707;52.212;9.540;2023-04-25T13:24:34;4.85;;;1.20;;
75135;SDS011;63707;52.212;9.540;2023-04-25T13:27:00;7.72;;;1.58;;
75135;SDS011;63707;52.212;9.540;2023-04-25T13:29:26;5.53;;;1.30;;
75135;SDS011;63707;52.212;9.540;2023-04-25T13:31:53;5.57;;;1.50;;
75135;SDS011;63707;52.212;9.540;2023-04-25T13:34:18;3.88;;;1.48;;
75135;SDS011;63707;52.212;9.540;2023-04-25T13:36:44;7.10;;;1.30;;
75135;SDS011;63707;52.212;9.540;2023-04-25T13:39:10;7.53;;;1.40;;
75135;SDS011;63707;52.212;9.540;2023-04-25T13:41:36;3.22;;;1.20;;
75135;SDS011;63707;52.212;9.540;2023-04-25T13:44:01;7.30;;;1.45;;
75135;SDS011;63707;52.212;9.540;2023-04-25T13:46:27;6.53;;;1.30;;
75135;SDS011;63707;52.212;9.540;2023-04-25T13:48:54;3.15;;;1.20;;
75135;SDS011;63707;52.212;9.540;2023-04-25T13:51:19;5.18;;;1.50;;
75135;SDS011;63707;52.212;9.540;2023-04-25T13:53:45;4.20;;;1.40;;
75135;SDS011;63707;52.212;9.540;2023-04-25T13:56:11;2.88;;;1.05;;
75135;SDS011;63707;52.212;9.540;2023-04-25T13:58:36;5.38;;;1.40;;
75135;SDS011;63707;52.212;9.540;2023-04-25T14:01:02;4.28;;;1.30;;
75135;SDS011;63707;52.212;9.540;2023-04-25T14:03:28;5.50;;;1.85;;
75135;SDS011;63707;52.212;9.540;2023-04-25T14:05:55;5.88;;;1.60;;
75135;SDS011;63707;52.212;9.540;2023-04-25T14:08:20;7.80;;;1.42;;
75135;SDS011;63707;52.212;9.540;2023-04-25T14:10:46;6.35;;;1.50;;
75135;SDS011;63707;52.212;9.540;2023-04-25T14:13:12;6.25;;;1.80;;
75135;SDS011;63707;52.212;9.540;2023-04-25T14:15:37;6.13;;;2.03;;
75135;SDS011;63707;52.212;9.540;2023-04-25T14:18:03;7.80;;;1.85;;
75135;SDS011;63707;52.212;9.540;2023-04-25T14:20:32;8.32;;;1.92;;
75135;SDS011;63707;52.212;9.540;2023-04-25T14:22:59;6.60;;;1.88;;
75135;SDS011;63707;52.212;9.540;2023-04-25T14:25:25;6.15;;;1.80;;
75135;SDS011;63707;52.212;9.540;2023-04-25T14:27:51;7.07;;;2.08;;
75135;SDS011;63707;52.212;9.540;2023-04-25T14:30:16;7.03;;;2.20;;
75135;SDS011;63707;52.212;9.540;2023-04-25T14:32:42;7.95;;;1.90;;
75135;SDS011;63707;52.212;9.540;2023-04-25T14:35:09;6.47;;;1.75;;
75135;SDS011;63707;52.212;9.540;2023-04-25T14:37:35;8.25;;;1.90;;